createdAt,value
2022-11-07T00:00:26.949Z,10.55
2022-11-07T00:01:26.974Z,10.57
2022-11-07T00:02:27.016Z,10.57
2022-11-07T00:03:26.905Z,10.58
2022-11-07T00:04:26.913Z,10.59
2022-11-07T00:05:26.867Z,10.61
2022-11-07T00:06:26.931Z,10.62
2022-11-07T00:07:26.846Z,10.65
2022-11-07T00:08:26.836Z,10.64
2022-11-07T00:09:26.819Z,10.64
2022-11-07T00:10:26.824Z,10.67
2022-11-07T00:11:26.847Z,10.65
2022-11-07T00:12:26.786Z,10.64
2022-11-07T00:13:26.776Z,10.65
2022-11-07T00:14:26.769Z,10.62
2022-11-07T00:15:26.769Z,10.61
2022-11-07T00:16:26.751Z,10.59
2022-11-07T00:17:26.717Z,10.61
2022-11-07T00:18:26.719Z,10.59
2022-11-07T00:19:26.697Z,10.58
2022-11-07T00:20:26.742Z,10.57
2022-11-07T00:21:26.666Z,10.55
2022-11-07T00:22:26.664Z,10.53
2022-11-07T00:23:26.677Z,10.53
2022-11-07T00:24:26.637Z,10.55
2022-11-07T00:25:26.607Z,10.51
2022-11-07T00:26:26.630Z,10.51
2022-11-07T00:27:26.628Z,10.51
2022-11-07T00:28:26.579Z,10.51
2022-11-07T00:29:26.566Z,10.48
2022-11-07T00:30:26.558Z,10.49
2022-11-07T00:31:26.545Z,10.49
2022-11-07T00:32:26.528Z,10.49
2022-11-07T00:33:26.519Z,10.51
2022-11-07T00:34:26.497Z,10.49
2022-11-07T00:35:26.486Z,10.51
2022-11-07T00:36:26.501Z,10.49
2022-11-07T00:37:26.456Z,10.49
2022-11-07T00:38:26.447Z,10.48
2022-11-07T00:39:26.437Z,10.45
2022-11-07T00:40:26.428Z,10.43
2022-11-07T00:41:26.443Z,10.45
2022-11-07T00:42:26.403Z,10.45
2022-11-07T00:43:26.378Z,10.43
2022-11-07T00:44:26.370Z,10.45
2022-11-07T00:45:26.347Z,10.45
2022-11-07T00:46:26.357Z,10.45
2022-11-07T00:47:26.328Z,10.43
2022-11-07T00:48:26.319Z,10.45
2022-11-07T00:49:26.308Z,10.43
2022-11-07T00:50:26.289Z,10.43
2022-11-07T00:51:26.284Z,10.42
2022-11-07T00:52:26.257Z,10.41
2022-11-07T00:53:26.266Z,10.42
2022-11-07T00:54:26.238Z,10.43
2022-11-07T00:55:26.215Z,10.42
2022-11-07T00:56:26.227Z,10.43
2022-11-07T00:57:26.200Z,10.45
2022-11-07T00:58:26.188Z,10.45
2022-11-07T00:59:26.167Z,10.46
2022-11-07T01:00:26.163Z,10.46
2022-11-07T01:01:26.292Z,10.46
2022-11-07T01:02:26.290Z,10.46
2022-11-07T01:03:26.119Z,10.48
2022-11-07T01:04:26.110Z,10.46
2022-11-07T01:05:26.086Z,10.46
2022-11-07T01:06:26.098Z,10.46
2022-11-07T01:07:26.066Z,10.48
2022-11-07T01:08:26.052Z,10.48
2022-11-07T01:09:26.037Z,10.49
2022-11-07T01:10:26.028Z,10.51
2022-11-07T01:11:26.036Z,10.53
2022-11-07T01:12:25.999Z,10.53
2022-11-07T01:13:25.989Z,10.57
2022-11-07T01:14:25.982Z,10.58
2022-11-07T01:15:25.949Z,10.58
2022-11-07T01:16:25.970Z,10.61
2022-11-07T01:17:25.929Z,10.64
2022-11-07T01:18:25.922Z,10.62
2022-11-07T01:19:25.907Z,10.64
2022-11-07T01:20:25.898Z,10.64
2022-11-07T01:21:25.889Z,10.68
2022-11-07T01:22:25.873Z,10.69
2022-11-07T01:23:25.850Z,10.71
2022-11-07T01:24:25.840Z,10.71
2022-11-07T01:25:25.829Z,10.71
2022-11-07T01:26:25.838Z,10.72
2022-11-07T01:27:25.788Z,10.69
2022-11-07T01:28:25.790Z,10.68
2022-11-07T01:29:25.778Z,10.68
2022-11-07T01:30:25.772Z,10.67
2022-11-07T01:31:25.769Z,10.65
2022-11-07T01:32:25.748Z,10.62
2022-11-07T01:33:25.721Z,10.59
2022-11-07T01:34:25.712Z,10.55
2022-11-07T01:35:25.699Z,10.51
2022-11-07T01:36:25.698Z,10.48
2022-11-07T01:37:25.667Z,10.46
2022-11-07T01:38:25.658Z,10.45
2022-11-07T01:39:25.640Z,10.45
2022-11-07T01:40:25.642Z,10.41
2022-11-07T01:41:25.786Z,10.38
2022-11-07T01:42:25.608Z,10.36
2022-11-07T01:43:25.580Z,10.34
2022-11-07T01:44:25.580Z,10.31
2022-11-07T01:45:25.560Z,10.30
2022-11-07T01:46:25.569Z,10.27
2022-11-07T01:47:25.531Z,10.24
2022-11-07T01:48:25.530Z,10.20
2022-11-07T01:49:25.517Z,10.20
2022-11-07T01:50:25.500Z,10.20
2022-11-07T01:51:25.499Z,10.20
2022-11-07T01:52:25.479Z,10.21
2022-11-07T01:53:25.460Z,10.21
2022-11-07T01:54:25.449Z,10.23
2022-11-07T01:55:25.439Z,10.24
2022-11-07T01:56:25.440Z,10.24
2022-11-07T01:57:25.407Z,10.24
2022-11-07T01:58:25.399Z,10.25
2022-11-07T01:59:25.387Z,10.25
2022-11-07T02:00:25.371Z,10.27
2022-11-07T02:01:25.485Z,10.27
2022-11-07T02:02:25.416Z,10.28
2022-11-07T02:03:25.321Z,10.30
2022-11-07T02:04:25.320Z,10.28
2022-11-07T02:05:25.313Z,10.30
2022-11-07T02:06:25.310Z,10.31
2022-11-07T02:07:25.273Z,10.31
2022-11-07T02:08:25.272Z,10.33
2022-11-07T02:09:25.249Z,10.31
2022-11-07T02:10:25.243Z,10.33
2022-11-07T02:11:25.250Z,10.33
2022-11-07T02:12:25.223Z,10.31
2022-11-07T02:13:25.193Z,10.31
2022-11-07T02:14:25.181Z,10.33
2022-11-07T02:15:25.177Z,10.33
2022-11-07T02:16:25.161Z,10.34
2022-11-07T02:17:25.153Z,10.33
2022-11-07T02:18:25.135Z,10.34
2022-11-07T02:19:25.122Z,10.31
2022-11-07T02:20:25.116Z,10.34
2022-11-07T02:21:25.092Z,10.34
2022-11-07T02:22:25.100Z,10.33
2022-11-07T02:23:25.073Z,10.31
2022-11-07T02:24:25.051Z,10.30
2022-11-07T02:25:25.044Z,10.27
2022-11-07T02:26:25.031Z,10.24
2022-11-07T02:27:25.042Z,10.24
2022-11-07T02:28:25.002Z,10.23
2022-11-07T02:29:24.996Z,10.20
2022-11-07T02:30:24.960Z,10.18
2022-11-07T02:31:24.963Z,10.15
2022-11-07T02:32:24.960Z,10.12
2022-11-07T02:33:24.942Z,10.09
2022-11-07T02:34:24.921Z,10.06
2022-11-07T02:35:24.913Z,10.05
2022-11-07T02:36:24.923Z,10.05
2022-11-07T02:37:24.884Z,10.02
2022-11-07T02:38:24.874Z,10.02
2022-11-07T02:39:24.852Z,9.99
2022-11-07T02:40:24.841Z,9.95
2022-11-07T02:41:24.834Z,9.97
2022-11-07T02:42:24.852Z,9.97
2022-11-07T02:43:24.805Z,9.99
2022-11-07T02:44:24.783Z,9.97
2022-11-07T02:45:24.774Z,9.99
2022-11-07T02:46:24.763Z,9.99
2022-11-07T02:47:24.774Z,10.00
2022-11-07T02:48:24.736Z,10.00
2022-11-07T02:49:24.723Z,10.02
2022-11-07T02:50:24.703Z,10.00
2022-11-07T02:51:24.693Z,10.00
2022-11-07T02:52:24.684Z,10.00
2022-11-07T02:53:24.664Z,9.95
2022-11-07T02:54:24.653Z,9.92
2022-11-07T02:55:24.641Z,9.90
2022-11-07T02:56:24.637Z,9.87
2022-11-07T02:57:24.632Z,9.84
2022-11-07T02:58:24.683Z,9.84
2022-11-07T02:59:27.167Z,9.80
2022-11-07T03:00:24.586Z,9.81
2022-11-07T03:01:24.666Z,9.80
2022-11-07T03:02:24.737Z,9.77
2022-11-07T03:03:24.527Z,9.77
2022-11-07T03:04:24.523Z,9.80
2022-11-07T03:05:24.503Z,9.81
2022-11-07T03:06:24.516Z,9.81
2022-11-07T03:07:24.493Z,9.82
2022-11-07T03:08:24.473Z,9.82
2022-11-07T03:09:24.451Z,9.84
2022-11-07T03:10:24.434Z,9.85
2022-11-07T03:11:24.424Z,9.85
2022-11-07T03:12:24.434Z,9.87
2022-11-07T03:13:24.401Z,9.88
2022-11-07T03:14:24.418Z,9.88
2022-11-07T03:15:24.370Z,9.91
2022-11-07T03:16:24.355Z,9.91
2022-11-07T03:17:24.362Z,9.92
2022-11-07T03:18:24.338Z,9.94
2022-11-07T03:19:24.323Z,9.94
2022-11-07T03:20:24.304Z,9.95
2022-11-07T03:21:24.291Z,9.95
2022-11-07T03:22:24.304Z,9.99
2022-11-07T03:23:24.263Z,9.99
2022-11-07T03:24:24.253Z,10.00
2022-11-07T03:25:24.244Z,9.99
2022-11-07T03:26:24.234Z,9.99
2022-11-07T03:27:24.232Z,10.00
2022-11-07T03:28:24.203Z,10.00
2022-11-07T03:29:24.183Z,10.02
2022-11-07T03:30:24.203Z,9.97
2022-11-07T03:31:24.154Z,9.95
2022-11-07T03:32:24.172Z,9.94
2022-11-07T03:33:24.133Z,9.92
2022-11-07T03:34:24.123Z,9.91
2022-11-07T03:35:24.109Z,9.91
2022-11-07T03:36:24.096Z,9.90
2022-11-07T03:37:24.094Z,9.88
2022-11-07T03:38:24.076Z,9.88
2022-11-07T03:39:25.972Z,9.90
2022-11-07T03:40:24.042Z,9.88
2022-11-07T03:41:24.034Z,9.88
2022-11-07T03:42:24.032Z,9.90
2022-11-07T03:43:24.004Z,9.90
2022-11-07T03:44:23.994Z,9.85
2022-11-07T03:45:23.975Z,9.84
2022-11-07T03:46:23.963Z,9.82
2022-11-07T03:47:23.965Z,9.82
2022-11-07T03:48:23.949Z,9.80
2022-11-07T03:49:23.916Z,9.77
2022-11-07T03:50:23.914Z,9.80
2022-11-07T03:51:23.886Z,9.76
2022-11-07T03:52:23.909Z,9.77
2022-11-07T03:53:25.834Z,9.80
2022-11-07T03:54:23.864Z,9.80
2022-11-07T03:55:23.835Z,9.80
2022-11-07T03:56:23.824Z,9.81
2022-11-07T03:57:23.813Z,9.80
2022-11-07T03:58:23.794Z,9.80
2022-11-07T03:59:23.783Z,9.81
2022-11-07T04:00:23.769Z,9.81
2022-11-07T04:01:23.858Z,9.81
2022-11-07T04:02:23.884Z,9.80
2022-11-07T04:03:23.735Z,9.81
2022-11-07T04:04:23.730Z,9.80
2022-11-07T04:05:23.704Z,9.81
2022-11-07T04:06:23.694Z,9.77
2022-11-07T04:07:23.696Z,9.77
2022-11-07T04:08:23.675Z,9.80
2022-11-07T04:09:23.644Z,9.77
2022-11-07T04:10:23.640Z,9.80
2022-11-07T04:11:23.625Z,9.80
2022-11-07T04:12:23.624Z,9.81
2022-11-07T04:13:23.594Z,9.80
2022-11-07T04:14:23.584Z,9.82
2022-11-07T04:15:23.574Z,9.84
2022-11-07T04:16:23.554Z,9.84
2022-11-07T04:17:23.574Z,9.84
2022-11-07T04:18:23.536Z,9.87
2022-11-07T04:19:23.523Z,9.85
2022-11-07T04:20:23.531Z,9.87
2022-11-07T04:21:23.497Z,9.87
2022-11-07T04:22:23.488Z,9.88
2022-11-07T04:23:23.497Z,9.87
2022-11-07T04:24:23.467Z,9.87
2022-11-07T04:25:23.435Z,9.88
2022-11-07T04:26:23.435Z,9.90
2022-11-07T04:27:23.436Z,9.90
2022-11-07T04:28:23.406Z,9.90
2022-11-07T04:29:23.385Z,9.90
2022-11-07T04:30:23.384Z,9.91
2022-11-07T04:31:23.377Z,9.92
2022-11-07T04:32:23.385Z,9.92
2022-11-07T04:33:23.335Z,9.94
2022-11-07T04:34:23.336Z,9.94
2022-11-07T04:35:23.316Z,9.94
2022-11-07T04:36:23.305Z,9.94
2022-11-07T04:37:23.306Z,9.94
2022-11-07T04:38:23.283Z,9.91
2022-11-07T04:39:23.256Z,9.92
2022-11-07T04:40:23.264Z,9.92
2022-11-07T04:41:23.226Z,9.94
2022-11-07T04:42:23.217Z,9.92
2022-11-07T04:43:23.226Z,9.90
2022-11-07T04:44:23.204Z,9.88
2022-11-07T04:45:23.177Z,9.91
2022-11-07T04:46:23.181Z,9.90
2022-11-07T04:47:23.159Z,9.90
2022-11-07T04:48:23.167Z,9.90
2022-11-07T04:49:23.127Z,9.88
2022-11-07T04:50:23.126Z,9.87
2022-11-07T04:51:23.110Z,9.88
2022-11-07T04:52:23.097Z,9.88
2022-11-07T04:53:23.094Z,9.90
2022-11-07T04:54:23.066Z,9.87
2022-11-07T04:55:23.046Z,9.88
2022-11-07T04:56:23.044Z,9.87
2022-11-07T04:57:23.016Z,9.88
2022-11-07T04:58:23.036Z,9.88
2022-11-07T04:59:22.996Z,9.87
2022-11-07T05:00:22.989Z,9.88
2022-11-07T05:01:23.017Z,9.90
2022-11-07T05:02:23.062Z,9.91
2022-11-07T05:03:22.956Z,9.91
2022-11-07T05:04:22.926Z,9.91
2022-11-07T05:05:22.916Z,9.91
2022-11-07T05:06:22.906Z,9.90
2022-11-07T05:07:22.886Z,9.91
2022-11-07T05:08:22.906Z,9.91
2022-11-07T05:09:22.866Z,9.91
2022-11-07T05:10:22.856Z,9.91
2022-11-07T05:11:22.835Z,9.91
2022-11-07T05:12:22.817Z,9.91
2022-11-07T05:13:22.807Z,9.92
2022-11-07T05:14:22.820Z,9.91
2022-11-07T05:15:22.789Z,9.91
2022-11-07T05:16:22.776Z,9.92
2022-11-07T05:17:27.726Z,9.91
2022-11-07T05:18:23.757Z,9.88
2022-11-07T05:19:22.768Z,9.85
2022-11-07T05:20:22.718Z,9.84
2022-11-07T05:21:22.697Z,9.82
2022-11-07T05:22:22.695Z,9.81
2022-11-07T05:23:22.687Z,9.80
2022-11-07T05:24:22.687Z,9.80
2022-11-07T05:25:22.650Z,9.81
2022-11-07T05:26:22.646Z,9.81
2022-11-07T05:27:22.631Z,9.81
2022-11-07T05:28:31.132Z,9.81
2022-11-07T05:29:23.616Z,9.76
2022-11-07T05:30:22.588Z,9.77
2022-11-07T05:31:22.577Z,9.77
2022-11-07T05:32:22.559Z,9.77
2022-11-07T05:33:22.548Z,9.74
2022-11-07T05:34:22.547Z,9.73
2022-11-07T05:35:22.517Z,9.72
2022-11-07T05:36:22.518Z,9.72
2022-11-07T05:37:22.487Z,9.72
2022-11-07T05:38:22.478Z,9.72
2022-11-07T05:39:22.478Z,9.74
2022-11-07T05:40:22.472Z,9.76
2022-11-07T05:41:22.440Z,9.76
2022-11-07T05:42:22.430Z,9.77
2022-11-07T05:43:22.407Z,9.77
2022-11-07T05:44:22.420Z,9.76
2022-11-07T05:45:22.382Z,9.76
2022-11-07T05:46:22.368Z,9.76
2022-11-07T05:47:22.357Z,9.73
2022-11-07T05:48:22.348Z,9.73
2022-11-07T05:49:22.348Z,9.70
2022-11-07T05:50:22.319Z,9.69
2022-11-07T05:51:22.297Z,9.67
2022-11-07T05:52:22.288Z,9.64
2022-11-07T05:53:22.377Z,9.64
2022-11-07T05:54:22.277Z,9.63
2022-11-07T05:55:22.248Z,9.62
2022-11-07T05:56:22.239Z,9.58
2022-11-07T05:57:22.218Z,9.58
2022-11-07T05:58:22.217Z,9.54
2022-11-07T05:59:22.210Z,9.52
2022-11-07T06:00:22.188Z,9.52
2022-11-07T06:01:22.210Z,9.49
2022-11-07T06:02:22.241Z,9.49
2022-11-07T06:03:22.159Z,9.49
2022-11-07T06:04:22.147Z,9.49
2022-11-07T06:05:24.354Z,9.51
2022-11-07T06:06:22.097Z,9.48
2022-11-07T06:07:22.078Z,9.48
2022-11-07T06:08:22.068Z,9.47
2022-11-07T06:09:22.088Z,9.44
2022-11-07T06:10:22.047Z,9.45
2022-11-07T06:11:22.038Z,9.44
2022-11-07T06:12:22.028Z,9.45
2022-11-07T06:13:22.008Z,9.47
2022-11-07T06:14:22.010Z,9.48
2022-11-07T06:15:21.979Z,9.49
2022-11-07T06:16:21.979Z,9.51
2022-11-07T06:17:21.949Z,9.51
2022-11-07T06:18:21.970Z,9.52
2022-11-07T06:19:21.933Z,9.52
2022-11-07T06:20:21.925Z,9.52
2022-11-07T06:21:21.897Z,9.54
2022-11-07T06:22:21.889Z,9.54
2022-11-07T06:23:21.878Z,9.54
2022-11-07T06:24:21.858Z,9.55
2022-11-07T06:25:21.848Z,9.55
2022-11-07T06:26:21.828Z,9.55
2022-11-07T06:27:21.809Z,9.56
2022-11-07T06:28:21.829Z,9.56
2022-11-07T06:29:21.797Z,9.56
2022-11-07T06:30:21.798Z,9.59
2022-11-07T06:31:21.759Z,9.58
2022-11-07T06:32:21.750Z,9.59
2022-11-07T06:33:21.740Z,9.62
2022-11-07T06:34:21.990Z,9.63
2022-11-07T06:35:21.710Z,9.66
2022-11-07T06:36:21.699Z,9.64
2022-11-07T06:37:21.681Z,9.67
2022-11-07T06:38:21.678Z,9.67
2022-11-07T06:39:21.670Z,9.67
2022-11-07T06:40:21.640Z,9.69
2022-11-07T06:41:21.630Z,9.70
2022-11-07T06:42:21.612Z,9.69
2022-11-07T06:43:21.590Z,9.72
2022-11-07T06:44:21.628Z,9.72
2022-11-07T06:45:21.573Z,9.72
2022-11-07T06:46:21.560Z,9.73
2022-11-07T06:47:21.547Z,9.73
2022-11-07T06:48:21.542Z,9.76
2022-11-07T06:49:21.509Z,9.77
2022-11-07T06:50:21.510Z,9.81
2022-11-07T06:51:21.488Z,9.82
2022-11-07T06:52:21.479Z,9.85
2022-11-07T06:53:21.469Z,10.00
2022-11-07T06:54:21.469Z,10.20
2022-11-07T06:55:21.439Z,10.59
2022-11-07T06:56:21.439Z,10.79
2022-11-07T06:57:21.412Z,11.01
2022-11-07T06:58:21.400Z,11.31
2022-11-07T06:59:21.399Z,11.49
2022-11-07T07:00:22.044Z,11.74
2022-11-07T07:01:22.250Z,11.99
2022-11-07T07:02:44.240Z,12.17
2022-11-07T07:03:22.362Z,12.10
2022-11-07T07:04:21.341Z,11.93
2022-11-07T07:05:21.475Z,11.81
2022-11-07T07:06:21.308Z,11.73
2022-11-07T07:07:21.282Z,11.65
2022-11-07T07:08:21.271Z,11.55
2022-11-07T07:09:21.270Z,11.44
2022-11-07T07:10:21.249Z,11.34
2022-11-07T07:11:21.231Z,11.26
2022-11-07T07:12:21.220Z,11.18
2022-11-07T07:13:21.200Z,11.13
2022-11-07T07:14:21.190Z,11.05
2022-11-07T07:15:21.181Z,11.00
2022-11-07T07:16:21.162Z,10.97
2022-11-07T07:17:21.171Z,10.94
2022-11-07T07:18:21.143Z,10.89
2022-11-07T07:19:21.141Z,10.86
2022-11-07T07:20:21.110Z,10.83
2022-11-07T07:21:21.109Z,10.80
2022-11-07T07:22:21.082Z,10.77
2022-11-07T07:23:21.481Z,10.75
2022-11-07T07:24:21.089Z,10.72
2022-11-07T07:25:21.057Z,10.72
2022-11-07T07:26:21.040Z,10.72
2022-11-07T07:27:21.020Z,10.72
2022-11-07T07:28:21.022Z,10.71
2022-11-07T07:29:21.011Z,10.72
2022-11-07T07:30:20.981Z,10.71
2022-11-07T07:31:20.970Z,10.71
2022-11-07T07:32:21.754Z,10.72
2022-11-07T07:33:21.286Z,10.75
2022-11-07T07:34:20.931Z,10.72
2022-11-07T07:35:20.911Z,10.72
2022-11-07T07:36:21.210Z,10.75
2022-11-07T07:37:20.882Z,10.75
2022-11-07T07:38:20.879Z,10.75
2022-11-07T07:39:20.876Z,10.76
2022-11-07T07:40:20.821Z,10.76
2022-11-07T07:41:20.850Z,10.77
2022-11-07T07:42:20.821Z,10.76
2022-11-07T07:43:20.833Z,10.77
2022-11-07T07:44:20.811Z,10.77
2022-11-07T07:45:20.792Z,10.77
2022-11-07T07:46:20.763Z,10.77
2022-11-07T07:47:20.765Z,10.79
2022-11-07T07:48:20.742Z,10.79
2022-11-07T07:49:20.742Z,10.79
2022-11-07T07:50:20.722Z,10.79
2022-11-07T07:51:20.712Z,10.79
2022-11-07T07:52:21.132Z,10.77
2022-11-07T07:53:21.002Z,10.77
2022-11-07T07:54:21.148Z,10.77
2022-11-07T07:55:21.091Z,10.79
2022-11-07T07:56:20.742Z,10.80
2022-11-07T07:57:20.633Z,10.80
2022-11-07T07:58:20.611Z,10.79
2022-11-07T07:59:20.599Z,10.80
2022-11-07T08:00:20.611Z,10.80
2022-11-07T08:01:20.597Z,10.82
2022-11-07T08:02:20.602Z,10.83
2022-11-07T08:03:20.561Z,10.83
2022-11-07T08:04:20.531Z,10.83
2022-11-07T08:05:20.520Z,10.84
2022-11-07T08:06:20.501Z,10.86
2022-11-07T08:07:20.483Z,10.86
2022-11-07T08:08:20.489Z,10.84
2022-11-07T08:09:20.463Z,10.86
2022-11-07T08:10:41.348Z,10.86
2022-11-07T08:11:21.444Z,10.87
2022-11-07T08:12:20.414Z,10.87
2022-11-07T08:13:20.423Z,10.87
2022-11-07T08:14:20.413Z,10.90
2022-11-07T08:15:20.392Z,10.92
2022-11-07T08:16:20.373Z,10.90
2022-11-07T08:17:20.363Z,10.92
2022-11-07T08:18:20.342Z,10.94
2022-11-07T08:19:20.373Z,10.95
2022-11-07T08:20:20.320Z,10.98
2022-11-07T08:21:20.304Z,11.00
2022-11-07T08:22:20.292Z,11.00
2022-11-07T08:23:20.547Z,11.02
2022-11-07T08:24:20.283Z,11.04
2022-11-07T08:25:20.254Z,11.05
2022-11-07T08:26:20.235Z,11.07
2022-11-07T08:27:20.234Z,11.10
2022-11-07T08:28:20.221Z,11.10
2022-11-07T08:29:20.223Z,11.13
2022-11-07T08:30:20.193Z,11.10
2022-11-07T08:31:20.172Z,11.13
2022-11-07T08:32:20.160Z,11.15
2022-11-07T08:33:20.406Z,11.16
2022-11-07T08:34:20.133Z,11.16
2022-11-07T08:35:20.124Z,11.18
2022-11-07T08:36:20.092Z,11.19
2022-11-07T08:37:20.103Z,11.20
2022-11-07T08:38:20.101Z,11.22
2022-11-07T08:39:20.066Z,11.23
2022-11-07T08:40:20.044Z,11.23
2022-11-07T08:41:22.409Z,11.22
2022-11-07T08:42:20.022Z,11.25
2022-11-07T08:43:20.039Z,11.23
2022-11-07T08:44:20.001Z,11.26
2022-11-07T08:45:19.984Z,11.26
2022-11-07T08:46:19.976Z,11.30
2022-11-07T08:47:19.972Z,11.26
2022-11-07T08:48:19.943Z,11.30
2022-11-07T08:49:19.943Z,11.27
2022-11-07T08:50:19.935Z,11.30
2022-11-07T08:51:19.914Z,11.30
2022-11-07T08:52:19.902Z,11.30
2022-11-07T08:53:20.246Z,11.31
2022-11-07T08:54:19.891Z,11.33
2022-11-07T08:55:19.867Z,11.33
2022-11-07T08:56:19.846Z,11.33
2022-11-07T08:57:19.836Z,11.34
2022-11-07T08:58:19.841Z,11.35
2022-11-07T08:59:19.813Z,11.37
2022-11-07T09:00:19.792Z,11.37
2022-11-07T09:01:19.854Z,11.38
2022-11-07T09:04:20.788Z,11.40
2022-11-07T09:05:19.740Z,11.40
2022-11-07T09:06:19.713Z,11.43
2022-11-07T09:07:19.703Z,11.43
2022-11-07T09:08:19.700Z,11.41
2022-11-07T09:09:19.688Z,11.43
2022-11-07T09:10:19.656Z,11.44
2022-11-07T09:11:19.655Z,11.45
2022-11-07T09:12:19.635Z,11.45
2022-11-07T09:13:19.851Z,11.48
2022-11-07T09:14:19.616Z,11.48
2022-11-07T09:15:19.597Z,11.48
2022-11-07T09:16:19.583Z,11.48
2022-11-07T09:17:19.576Z,11.48
2022-11-07T09:18:19.609Z,11.48
2022-11-07T09:19:19.546Z,11.48
2022-11-07T09:20:19.526Z,11.49
2022-11-07T09:21:22.675Z,11.49
2022-11-07T09:22:19.507Z,11.51
2022-11-07T09:23:19.890Z,11.51
2022-11-07T09:24:19.476Z,11.51
2022-11-07T09:25:19.467Z,11.51
2022-11-07T09:26:19.435Z,11.51
2022-11-07T09:27:19.444Z,11.49
2022-11-07T09:28:19.447Z,11.51
2022-11-07T09:29:19.414Z,11.52
2022-11-07T09:30:19.397Z,11.53
2022-11-07T09:31:19.378Z,11.53
2022-11-07T09:32:43.406Z,11.53
2022-11-07T09:33:20.387Z,11.56
2022-11-07T09:34:19.344Z,11.55
2022-11-07T09:35:19.336Z,11.56
2022-11-07T09:36:19.325Z,11.58
2022-11-07T09:37:19.316Z,11.59
2022-11-07T09:38:19.286Z,11.59
2022-11-07T09:39:19.307Z,11.59
2022-11-07T09:40:19.263Z,11.59
2022-11-07T09:41:19.256Z,11.60
2022-11-07T09:42:19.237Z,11.60
2022-11-07T09:43:19.523Z,11.62
2022-11-07T09:44:19.236Z,11.62
2022-11-07T09:45:19.207Z,11.65
2022-11-07T09:46:19.194Z,11.63
2022-11-07T09:47:19.187Z,11.63
2022-11-07T09:48:19.154Z,11.65
2022-11-07T09:49:19.177Z,11.65
2022-11-07T09:50:19.136Z,11.65
2022-11-07T09:51:19.143Z,11.67
2022-11-07T09:52:19.108Z,11.67
2022-11-07T09:53:19.106Z,11.68
2022-11-07T09:54:19.106Z,11.70
2022-11-07T09:55:19.076Z,11.71
2022-11-07T09:56:19.096Z,11.71
2022-11-07T09:57:19.047Z,11.73
2022-11-07T09:58:19.027Z,11.74
2022-11-07T09:59:19.038Z,11.74
2022-11-07T10:00:18.997Z,11.76
2022-11-07T10:01:19.087Z,11.77
2022-11-07T10:02:19.067Z,11.80
2022-11-07T10:03:19.243Z,11.80
2022-11-07T10:04:27.058Z,11.83
2022-11-07T10:05:19.948Z,11.85
2022-11-07T10:06:24.008Z,11.86
2022-11-07T10:07:19.909Z,11.88
2022-11-07T10:08:18.897Z,11.89
2022-11-07T10:09:18.900Z,11.91
2022-11-07T10:10:18.867Z,11.93
2022-11-07T10:11:18.865Z,11.93
2022-11-07T10:12:18.848Z,11.95
2022-11-07T10:13:19.102Z,11.96
2022-11-07T10:14:18.847Z,11.96
2022-11-07T10:15:18.808Z,11.97
2022-11-07T10:16:18.808Z,11.99
2022-11-07T10:17:18.779Z,11.99
2022-11-07T10:18:18.768Z,12.02
2022-11-07T10:19:18.779Z,12.02
2022-11-07T10:20:23.496Z,12.03
2022-11-07T10:22:19.708Z,12.07
2022-11-07T10:23:18.896Z,12.08
2022-11-07T10:24:18.718Z,12.12
2022-11-07T10:25:18.688Z,12.14
2022-11-07T10:26:18.659Z,12.15
2022-11-07T10:27:18.657Z,12.17
2022-11-07T10:28:18.637Z,12.17
2022-11-07T10:29:18.649Z,12.17
2022-11-07T10:30:18.627Z,12.21
2022-11-07T10:31:18.608Z,12.21
2022-11-07T10:32:18.586Z,12.23
2022-11-07T10:33:18.713Z,12.25
2022-11-07T10:34:18.578Z,12.28
2022-11-07T10:35:18.549Z,12.26
2022-11-07T10:36:18.530Z,12.29
2022-11-07T10:37:18.544Z,12.30
2022-11-07T10:38:18.542Z,12.29
2022-11-07T10:39:18.512Z,12.32
2022-11-07T10:40:18.530Z,12.30
2022-11-07T10:41:18.470Z,12.29
2022-11-07T10:42:18.448Z,12.30
2022-11-07T10:43:18.763Z,12.29
2022-11-07T10:44:18.460Z,12.29
2022-11-07T10:45:18.409Z,12.29
2022-11-07T10:46:18.472Z,12.28
2022-11-07T10:47:18.380Z,12.26
2022-11-07T10:48:18.732Z,12.26
2022-11-07T10:49:18.360Z,12.26
2022-11-07T10:50:18.405Z,12.28
2022-11-07T10:51:18.347Z,12.26
2022-11-07T10:52:18.330Z,12.29
2022-11-07T10:53:18.309Z,12.28
2022-11-07T10:54:21.918Z,12.29
2022-11-07T10:55:18.298Z,12.28
2022-11-07T10:56:18.270Z,12.26
2022-11-07T10:57:18.254Z,12.25
2022-11-07T10:58:18.438Z,12.25
2022-11-07T10:59:18.232Z,12.25
2022-11-07T11:00:18.229Z,12.25
2022-11-07T11:01:18.216Z,12.23
2022-11-07T11:02:18.231Z,12.23
2022-11-07T11:03:18.159Z,12.25
2022-11-07T11:04:18.170Z,12.25
2022-11-07T11:05:18.170Z,12.25
2022-11-07T11:06:18.142Z,12.28
2022-11-07T11:07:18.129Z,12.29
2022-11-07T11:08:18.809Z,12.30
2022-11-07T11:09:18.100Z,12.30
2022-11-07T11:10:18.115Z,12.32
2022-11-07T11:11:18.071Z,12.35
2022-11-07T11:12:18.050Z,12.33
2022-11-07T11:13:18.043Z,12.33
2022-11-07T11:14:18.038Z,12.35
2022-11-07T11:15:18.032Z,12.35
2022-11-07T11:16:18.010Z,12.36
2022-11-07T11:17:18.073Z,12.36
2022-11-07T11:18:18.578Z,12.36
2022-11-07T11:19:17.971Z,12.37
2022-11-07T11:20:17.970Z,12.39
2022-11-07T11:21:17.941Z,12.43
2022-11-07T11:22:17.933Z,12.44
2022-11-07T11:23:18.327Z,12.47
2022-11-07T11:24:17.901Z,12.50
2022-11-07T11:25:17.912Z,12.53
2022-11-07T11:26:17.868Z,12.55
2022-11-07T11:27:17.855Z,12.57
2022-11-07T11:28:18.220Z,12.61
2022-11-07T11:29:17.842Z,12.61
2022-11-07T11:30:17.835Z,12.65
2022-11-07T11:31:17.825Z,12.68
2022-11-07T11:32:17.810Z,12.69
2022-11-07T11:33:18.037Z,12.70
2022-11-07T11:34:17.783Z,12.70
2022-11-07T11:35:17.781Z,12.72
2022-11-07T11:36:17.743Z,12.72
2022-11-07T11:37:17.722Z,12.73
2022-11-07T11:38:17.723Z,12.73
2022-11-07T11:39:17.842Z,12.75
2022-11-07T11:40:17.708Z,12.78
2022-11-07T11:41:17.682Z,12.80
2022-11-07T11:42:17.662Z,12.84
2022-11-07T11:43:17.860Z,12.86
2022-11-07T11:44:17.647Z,12.88
2022-11-07T11:45:17.641Z,12.88
2022-11-07T11:46:17.612Z,12.88
2022-11-07T11:47:17.591Z,12.88
2022-11-07T11:48:17.587Z,12.88
2022-11-07T11:49:17.570Z,12.86
2022-11-07T11:50:17.563Z,12.87
2022-11-07T11:51:17.560Z,12.87
2022-11-07T11:52:17.532Z,12.87
2022-11-07T11:53:18.111Z,12.86
2022-11-07T11:54:17.522Z,12.86
2022-11-07T11:55:17.494Z,12.86
2022-11-07T11:56:17.511Z,12.87
2022-11-07T11:57:17.474Z,12.86
2022-11-07T11:58:17.453Z,12.86
2022-11-07T11:59:17.452Z,12.84
2022-11-07T12:00:17.424Z,12.83
2022-11-07T12:01:17.454Z,12.83
2022-11-07T12:02:17.422Z,12.83
2022-11-07T12:03:17.787Z,12.83
2022-11-07T12:04:17.393Z,12.86
2022-11-07T12:05:17.362Z,12.86
2022-11-07T12:06:17.364Z,12.87
2022-11-07T12:07:17.331Z,12.86
2022-11-07T12:08:17.333Z,12.86
2022-11-07T12:09:18.453Z,12.86
2022-11-07T12:10:17.294Z,12.86
2022-11-07T12:11:17.295Z,12.86
2022-11-07T12:12:17.273Z,12.87
2022-11-07T12:13:17.666Z,12.86
2022-11-07T12:14:17.255Z,12.87
2022-11-07T12:15:17.223Z,12.84
2022-11-07T12:16:17.232Z,12.84
2022-11-07T12:17:17.214Z,12.86
2022-11-07T12:18:17.196Z,12.87
2022-11-07T12:19:17.173Z,12.87
2022-11-07T12:20:17.165Z,12.87
2022-11-07T12:21:17.162Z,12.90
2022-11-07T12:22:17.145Z,12.88
2022-11-07T12:23:17.505Z,12.88
2022-11-07T12:24:17.123Z,12.90
2022-11-07T12:25:17.146Z,12.91
2022-11-07T12:26:17.104Z,12.90
2022-11-07T12:27:17.956Z,12.95
2022-11-07T12:28:17.055Z,12.98
2022-11-07T12:29:17.045Z,12.98
2022-11-07T12:30:17.024Z,13.01
2022-11-07T12:31:17.026Z,13.01
2022-11-07T12:32:17.015Z,12.99
2022-11-07T12:33:17.301Z,12.99
2022-11-07T12:34:16.976Z,12.99
2022-11-07T12:35:16.973Z,13.01
2022-11-07T12:36:17.004Z,13.02
2022-11-07T12:37:16.940Z,13.01
2022-11-07T12:38:16.947Z,13.02
2022-11-07T12:39:16.927Z,13.03
2022-11-07T12:40:16.905Z,13.05
2022-11-07T12:41:16.944Z,13.06
2022-11-07T12:42:16.874Z,13.08
2022-11-07T12:43:17.308Z,13.08
2022-11-07T12:44:16.847Z,13.09
2022-11-07T12:45:16.840Z,13.09
2022-11-07T12:46:16.837Z,13.09
2022-11-07T12:47:16.800Z,13.11
2022-11-07T12:48:16.912Z,13.08
2022-11-07T12:49:16.770Z,13.09
2022-11-07T12:50:16.765Z,13.09
2022-11-07T12:51:16.760Z,13.09
2022-11-07T12:52:16.746Z,13.06
2022-11-07T12:53:17.323Z,13.08
2022-11-07T12:54:16.851Z,13.06
2022-11-07T12:55:16.697Z,13.03
2022-11-07T12:56:16.687Z,13.03
2022-11-07T12:57:16.676Z,13.03
2022-11-07T12:58:16.658Z,13.02
2022-11-07T12:59:16.637Z,13.03
2022-11-07T13:00:16.635Z,13.05
2022-11-07T13:01:16.675Z,13.02
2022-11-07T13:02:16.799Z,13.03
2022-11-07T13:03:16.947Z,13.03